Weather reports worldwide

Advertisment
Estaca de Bares, Spain (8004): temperature & dewpoint: 24.10.2020 19:00:00 - 30.10.2020 19:00:00 (CET)Estaca de Bares, Spain (8004): wind speed & gusts: 24.10.2020 19:00:00 - 30.10.2020 19:00:00 (CET)Estaca de Bares, Spain (8004): wind direction: 24.10.2020 19:00:00 - 30.10.2020 19:00:00 (CET)Estaca de Bares, Spain (8004): reduced air pressure: 24.10.2020 19:00:00 - 30.10.2020 19:00:00 (CET)Estaca de Bares, Spain (8004): sunshine duration: 24.10.2020 19:00:00 - 30.10.2020 19:00:00 (CET)Estaca de Bares, Spain (8004): precipitation: 24.10.2020 19:00:00 - 30.10.2020 19:00:00 (CET)
Date & Time tt [°C] td [°C] ff [km/h] ff [kn] fx [km/h] fx [kn] dd ppp [hPa] sd [min] rr [mm]
30.10.2020 19:00:00 18,1 13,2 13 7 21 11 W 1020,5 18 -
30.10.2020 18:00:00 17,4 12,5 8 4 23 12 SE 1020,1 60 0,0
30.10.2020 17:00:00 17,7 11,4 16 9 20 11 ESE 1020,3 57 0,0
30.10.2020 16:00:00 20,4 13,6 7 4 21 12 SW 1020,8 59 0,0
30.10.2020 15:00:00 19,3 13,7 9 5 18 10 W 1021,3 52 0,0
30.10.2020 14:00:00 19,3 13,7 6 3 17 9 W 1021,7 58 0,0
30.10.2020 13:00:00 18,0 12,0 9 5 13 7 W 1022,3 60 -
30.10.2020 12:00:00 16,4 11,3 9 5 14 7 W 1022,6 60 0,0
30.10.2020 11:00:00 15,1 10,9 6 3 18 10 NW 1022,8 60 0,0
30.10.2020 10:00:00 14,2 10,6 3 2 10 6 NNW 1022,7 60 0,0
30.10.2020 09:00:00 14,1 10,3 7 4 9 5 E 1022,3 26 0,0
30.10.2020 08:00:00 13,6 9,8 6 3 10 6 WSW 1022,0 0 0,0
30.10.2020 07:00:00 14,1 10,6 2 1 8 5 WNW 1022,4 0 -
30.10.2020 06:00:00 14,5 10,2 3 1 11 6 W 1022,4 0 0,0
30.10.2020 05:00:00 14,7 10,3 8 4 11 6 WSW 1022,5 0 0,0
30.10.2020 04:00:00 14,4 11,6 6 4 11 6 WSW 1022,9 0 0,0
30.10.2020 03:00:00 14,6 11,9 7 4 9 5 W 1023,1 0 0,0
30.10.2020 02:00:00 14,5 11,8 7 4 14 8 W 1023,1 0 0,0
30.10.2020 01:00:00 15,0 12,0 7 4 10 5 W 1023,5 0 -
30.10.2020 00:00:00 14,5 10,5 8 5 14 7 S 1023,7 0 0,0
29.10.2020 23:00:00 14,6 10,0 9 5 13 7 SW 1023,7 0 0,0
29.10.2020 22:00:00 15,4 10,4 9 5 15 8 SW 1023,7 0 0,0
29.10.2020 21:00:00 14,8 10,8 11 6 14 8 WSW 1023,4 0 0,0
29.10.2020 20:00:00 15,2 11,2 9 5 14 8 SW 1023,1 0 0,0
29.10.2020 19:00:00 - - - - - - - - - -
29.10.2020 18:00:00 16,6 11,8 26 14 33 18 W 1022,0 60 0,0
29.10.2020 17:00:00 17,3 11,3 30 16 41 22 W 1022,0 60 0,0
29.10.2020 16:00:00 17,4 11,0 34 18 41 22 W 1022,2 60 0,0
29.10.2020 15:00:00 17,5 11,6 29 16 34 18 W 1022,8 50 0,0
29.10.2020 14:00:00 17,7 11,7 26 14 38 20 W 1023,5 54 0,0
29.10.2020 13:00:00 17,2 11,2 28 15 34 19 W 1023,9 60 -
29.10.2020 12:00:00 16,2 10,8 24 13 34 19 WSW 1024,0 60 0,0
29.10.2020 11:00:00 15,3 10,5 23 13 39 21 WSW 1024,0 60 0,0
29.10.2020 10:00:00 14,7 9,9 27 15 39 21 WSW 1023,5 60 0,0
29.10.2020 09:00:00 14,3 9,7 17 9 29 16 SW 1023,1 31 0,0
29.10.2020 08:00:00 14,3 10,2 23 12 30 16 WSW 1022,7 0 0,0
29.10.2020 07:00:00 13,8 11,4 17 9 36 20 WSW 1022,8 0 -
29.10.2020 06:00:00 14,5 10,8 26 14 40 21 SW 1022,2 0 0,0
29.10.2020 05:00:00 14,2 11,7 24 13 34 18 WSW 1022,4 0 0,0
29.10.2020 04:00:00 14,6 11,0 24 13 41 22 WSW 1022,3 0 0,0
29.10.2020 03:00:00 14,2 11,9 29 16 36 19 WSW 1022,7 0 0,0
29.10.2020 02:00:00 13,9 12,3 20 11 39 21 W 1023,1 0 0,0
29.10.2020 01:00:00 14,0 12,0 26 14 36 20 WSW 1022,9 0 -
29.10.2020 00:00:00 13,9 11,9 29 16 38 21 WSW 1022,6 0 0,0
28.10.2020 23:00:00 14,2 12,4 31 17 35 19 W 1022,4 0 0,0
28.10.2020 22:00:00 14,3 12,2 30 16 35 19 W 1021,9 0 0,0
28.10.2020 21:00:00 14,8 13,6 25 13 32 18 W 1021,6 0 0,0
28.10.2020 20:00:00 14,8 12,1 27 15 33 18 WSW 1021,6 0 0,0
28.10.2020 19:00:00 15,0 12,1 28 15 45 25 W 1020,9 16 -
28.10.2020 18:00:00 15,9 10,9 40 22 55 30 W 1020,1 56 0,0
28.10.2020 17:00:00 16,1 11,9 40 22 57 31 W 1019,7 37 0,0
28.10.2020 16:00:00 16,8 11,1 48 26 64 35 W 1019,2 47 0,0
28.10.2020 15:00:00 16,8 11,1 49 26 61 33 W 1018,9 43 0,0
28.10.2020 14:00:00 16,3 11,4 50 27 63 34 W 1018,7 60 0,0
28.10.2020 13:00:00 15,5 11,7 43 23 59 32 W 1019,0 27 -
28.10.2020 12:00:00 15,7 11,9 44 24 53 29 W 1018,7 19 0,0
28.10.2020 11:00:00 15,1 11,7 42 23 61 33 W 1018,1 35 0,0
28.10.2020 10:00:00 14,0 11,3 45 25 61 33 WSW 1017,2 2 0,0
28.10.2020 09:00:00 14,2 11,0 39 21 48 26 W 1017,1 0 0,0
28.10.2020 08:00:00 14,4 9,8 44 24 56 30 WSW 1015,9 0 0,0
28.10.2020 07:00:00 13,9 10,6 44 24 58 31 WSW 1015,5 0 -
28.10.2020 06:00:00 13,5 11,0 42 23 53 29 WSW 1014,9 0 0,0
28.10.2020 05:00:00 13,3 11,6 38 21 53 29 WSW 1014,9 0 0,0
28.10.2020 04:00:00 13,5 11,6 41 22 48 26 WSW 1014,7 0 0,0
28.10.2020 03:00:00 13,2 13,2 40 22 56 30 WSW 1014,9 0 0,0
28.10.2020 02:00:00 13,5 12,1 34 19 53 28 WSW 1014,9 0 0,0
28.10.2020 01:00:00 13,4 13,4 29 15 55 30 WSW 1015,0 0 -
28.10.2020 00:00:00 14,6 12,6 31 17 50 27 WSW 1014,5 0 0,0
27.10.2020 23:00:00 15,2 11,3 40 21 57 31 W 1014,0 0 0,0
27.10.2020 22:00:00 15,2 13,4 42 23 53 28 W 1013,4 0 0,0
27.10.2020 21:00:00 14,8 13,7 39 21 61 33 WSW 1012,3 0 0,0
27.10.2020 20:00:00 14,8 13,6 44 24 57 31 WSW 1011,6 0 0,0
27.10.2020 19:00:00 14,3 13,9 51 27 67 36 WSW 1011,0 0 -
27.10.2020 18:00:00 14,4 14,4 49 27 73 40 W 1010,6 0 0,2
27.10.2020 17:00:00 13,9 13,9 54 29 72 39 W 1010,1 0 0,4
27.10.2020 16:00:00 15,9 15,3 63 34 92 50 WSW 1008,6 14 0,0
27.10.2020 15:00:00 17,0 14,0 71 38 94 51 WSW 1007,3 48 0,0
27.10.2020 14:00:00 16,7 13,3 71 39 101 55 WSW 1007,5 41 0,0
27.10.2020 13:00:00 17,0 12,5 76 41 104 56 WSW 1008,0 48 -
27.10.2020 12:00:00 16,6 12,1 71 38 96 52 WSW 1007,7 57 0,0
27.10.2020 11:00:00 15,8 12,0 73 40 104 56 WSW 1008,9 46 0,0
27.10.2020 10:00:00 15,1 11,7 67 36 89 48 W 1009,2 43 0,0
27.10.2020 09:00:00 14,6 11,3 66 36 96 52 WSW 1008,8 0 0,0
27.10.2020 08:00:00 13,7 11,9 76 41 100 54 WSW 1009,1 0 0,2
27.10.2020 07:00:00 14,4 11,2 69 38 101 55 WSW 1009,8 0 -
27.10.2020 06:00:00 14,1 10,5 61 33 74 40 W 1010,6 0 0,0
27.10.2020 05:00:00 14,1 10,6 58 32 76 41 WSW 1011,1 0 0,0
27.10.2020 04:00:00 13,5 11,2 55 30 72 39 WSW 1012,3 0 0,0
27.10.2020 03:00:00 13,6 10,4 56 30 80 43 W 1012,9 0 0,0
27.10.2020 02:00:00 13,4 10,4 56 31 68 37 W 1013,6 0 0,0
27.10.2020 01:00:00 13,1 10,4 49 27 60 32 WSW 1014,8 0 -
27.10.2020 00:00:00 12,8 10,3 46 25 60 32 W 1015,4 0 0,0
26.10.2020 23:00:00 12,6 10,3 48 26 64 35 WSW 1015,6 0 0,0
26.10.2020 22:00:00 12,4 11,0 47 26 60 32 WSW 1015,9 0 0,0
26.10.2020 21:00:00 12,6 10,9 44 24 60 32 WSW 1016,2 0 0,0
26.10.2020 20:00:00 12,7 11,2 39 21 45 25 WSW 1016,3 0 0,0
26.10.2020 19:00:00 12,7 10,9 37 20 65 35 WSW 1016,2 0 -
26.10.2020 18:00:00 12,7 11,1 35 19 65 35 W 1016,2 3 0,6
26.10.2020 17:00:00 13,6 9,3 45 24 59 32 W 1016,2 19 0,0
26.10.2020 16:00:00 13,9 9,2 51 27 63 34 W 1016,0 47 0,0
26.10.2020 15:00:00 12,3 11,0 60 32 79 42 W 1015,7 24 0,2
26.10.2020 14:00:00 13,8 11,1 42 23 55 30 W 1016,5 35 0,6
26.10.2020 13:00:00 13,4 11,1 42 23 56 30 W 1016,6 34 -
26.10.2020 12:00:00 13,0 11,1 40 22 52 28 W 1016,6 24 0,2
26.10.2020 11:00:00 11,8 9,7 42 23 50 27 WSW 1016,2 44 0,0
26.10.2020 10:00:00 11,4 10,3 40 22 59 32 W 1016,3 41 0,0
26.10.2020 09:00:00 10,7 9,8 42 23 54 29 WSW 1015,0 0 0,8
26.10.2020 08:00:00 10,5 10,2 40 22 60 32 WSW 1014,4 0 1,2
26.10.2020 07:00:00 10,8 10,2 37 20 60 33 W 1013,9 0 -
26.10.2020 06:00:00 10,4 9,7 49 27 61 33 WSW 1012,8 0 0,2
26.10.2020 05:00:00 10,3 8,8 49 27 62 34 WSW 1012,3 0 0,0
26.10.2020 04:00:00 10,1 8,9 43 23 60 33 WSW 1012,2 0 0,6
26.10.2020 03:00:00 10,0 9,0 48 26 67 36 WSW 1011,8 0 0,4
26.10.2020 02:00:00 9,5 9,6 40 22 64 35 WSW 1011,7 0 1,4
26.10.2020 01:00:00 9,9 9,6 51 28 64 35 WSW 1010,9 0 -
26.10.2020 00:00:00 11,3 8,7 35 19 51 27 WSW 1011,2 0 0,2
25.10.2020 23:00:00 10,0 10,0 37 20 77 41 W 1010,9 0 1,2
25.10.2020 22:00:00 10,8 8,9 47 26 69 37 WSW 1009,3 0 0,6
25.10.2020 21:00:00 10,1 9,9 32 18 77 42 WSW 1009,7 0 8,6
25.10.2020 20:00:00 11,5 9,4 39 21 59 32 WSW 1008,3 0 0,2
25.10.2020 19:00:00 11,5 10,0 52 28 68 37 WSW 1008,0 0 -
25.10.2020 18:00:00 12,4 9,9 56 31 68 37 WSW 1007,5 5 0,0
25.10.2020 17:00:00 12,8 9,7 47 26 56 31 WSW 1007,4 41 0,0
25.10.2020 16:00:00 13,1 9,6 48 26 68 37 W 1007,3 44 0,0
25.10.2020 15:00:00 12,1 8,4 61 33 88 47 W 1006,8 39 0,0
25.10.2020 14:00:00 14,0 10,6 48 26 59 32 W 1006,9 57 0,0
25.10.2020 13:00:00 12,0 10,5 54 29 71 38 WSW 1007,3 18 -
25.10.2020 12:00:00 11,0 9,6 54 29 80 43 WSW 1007,1 0 0,6
25.10.2020 11:00:00 10,7 9,6 53 29 84 46 W 1007,3 0 0,4
25.10.2020 10:00:00 12,7 11,8 51 28 62 33 WSW 1006,4 2 0,0
25.10.2020 09:00:00 13,0 12,5 47 26 68 37 W 1006,1 0 1,8
25.10.2020 08:00:00 11,9 11,9 54 29 73 40 W 1005,5 0 0,6
25.10.2020 07:00:00 13,5 11,2 42 23 59 32 WSW 1005,9 0 -
25.10.2020 06:00:00 13,8 11,3 42 23 74 40 W 1005,8 0 0,0
25.10.2020 05:00:00 14,1 10,9 59 32 77 42 W 1005,4 0 0,0
25.10.2020 04:00:00 13,2 12,4 49 27 60 32 WSW 1006,1 0 0,2
25.10.2020 03:00:00 12,8 12,8 47 26 95 51 W 1006,8 0 0,6
25.10.2020 02:00:00 15,6 14,3 52 28 74 40 W 1005,2 0 0,0
25.10.2020 01:00:00 - - - - - - - - - -
25.10.2020 00:00:00 14,7 14,7 40 22 79 42 WSW 1006,7 0 1,8
24.10.2020 23:00:00 14,7 14,7 54 29 99 53 W 1007,0 0 4,6
24.10.2020 22:00:00 16,0 14,1 65 35 100 54 WSW 1004,9 0 0,8
24.10.2020 21:00:00 16,4 14,9 75 40 92 50 WSW 1006,5 0 0,0
24.10.2020 20:00:00 16,6 14,6 62 33 85 46 WSW 1007,1 0 0,0
24.10.2020 19:00:00 15,6 15,3 56 31 77 42 WSW 1008,2 0 -

tt = temperature
td = dewpoint
ff = wind speed
fx = gusts
dd = wind direction
ppp = reduced air pressure
sd = sunshine duration
rr = precipitation

Next stations